createdAt,value
2023-12-11T00:00:21.772Z,12.17
2023-12-11T00:02:49.083Z,12.19
2023-12-11T00:05:16.316Z,12.21
2023-12-11T00:07:43.940Z,12.22
2023-12-11T00:10:10.995Z,12.25
2023-12-11T00:12:38.401Z,12.26
2023-12-11T00:15:06.061Z,12.29
2023-12-11T00:17:33.619Z,12.32
2023-12-11T00:20:00.901Z,12.35
2023-12-11T00:22:27.977Z,12.38
2023-12-11T00:24:55.346Z,12.41
2023-12-11T00:27:22.456Z,12.46
2023-12-11T00:29:50.324Z,12.49
2023-12-11T00:32:17.164Z,12.50
2023-12-11T00:34:44.130Z,12.51
2023-12-11T00:37:11.207Z,12.52
2023-12-11T00:39:39.046Z,12.54
2023-12-11T00:42:06.094Z,12.56
2023-12-11T00:44:33.340Z,12.58
2023-12-11T00:47:03.139Z,12.62
2023-12-11T00:49:30.181Z,12.64
2023-12-11T00:51:57.669Z,12.67
2023-12-11T00:54:24.793Z,12.70
2023-12-11T00:56:51.934Z,12.71
2023-12-11T00:59:18.943Z,12.73
2023-12-11T01:01:45.866Z,12.76
2023-12-11T01:04:13.460Z,12.75
2023-12-11T01:06:40.677Z,12.78
2023-12-11T01:09:07.476Z,12.91
2023-12-11T01:11:34.435Z,12.81
2023-12-11T01:14:01.371Z,12.73
2023-12-11T01:16:28.536Z,12.90
2023-12-11T01:18:55.897Z,12.70
2023-12-11T01:21:23.125Z,12.62
2023-12-11T01:23:50.172Z,12.74
2023-12-11T01:26:17.631Z,12.66
2023-12-11T01:28:44.791Z,12.63
2023-12-11T01:31:12.069Z,12.64
2023-12-11T01:33:39.140Z,12.67
2023-12-11T01:36:06.838Z,12.83
2023-12-11T01:38:33.780Z,12.74
2023-12-11T01:41:01.028Z,12.76
2023-12-11T01:43:27.893Z,12.79
2023-12-11T01:46:05.110Z,12.82
2023-12-11T01:48:33.364Z,12.84
2023-12-11T01:51:00.484Z,12.86
2023-12-11T01:53:27.759Z,12.88
2023-12-11T01:55:54.993Z,12.90
2023-12-11T01:58:21.949Z,12.91
2023-12-11T02:00:49.186Z,12.91
2023-12-11T02:03:16.337Z,12.93
2023-12-11T02:05:44.267Z,12.94
2023-12-11T02:08:11.376Z,12.96
2023-12-11T02:10:38.403Z,12.97
2023-12-11T02:13:05.412Z,12.99
2023-12-11T02:15:39.010Z,13.01
2023-12-11T02:18:07.587Z,13.03
2023-12-11T02:20:35.298Z,13.05
2023-12-11T02:23:05.095Z,13.05
2023-12-11T02:25:32.584Z,13.06
2023-12-11T02:27:59.631Z,13.08
2023-12-11T02:30:27.754Z,13.08
2023-12-11T02:32:54.656Z,13.09
2023-12-11T02:35:21.667Z,13.11
2023-12-11T02:37:48.706Z,13.12
2023-12-11T02:40:15.620Z,13.12
2023-12-11T02:42:49.000Z,13.12
2023-12-11T02:45:16.403Z,13.12
2023-12-11T02:47:43.536Z,13.13
2023-12-11T02:50:11.219Z,13.12
2023-12-11T02:52:38.257Z,13.12
2023-12-11T02:55:06.361Z,13.12
2023-12-11T02:57:33.676Z,13.12
2023-12-11T03:00:00.760Z,13.13
2023-12-11T03:02:27.776Z,13.14
2023-12-11T03:04:54.780Z,13.14
2023-12-11T03:07:21.906Z,13.14
2023-12-11T03:09:49.141Z,13.15
2023-12-11T03:12:16.176Z,13.16
2023-12-11T03:14:43.113Z,13.15
2023-12-11T03:17:10.051Z,13.12
2023-12-11T03:19:37.574Z,13.10
2023-12-11T03:22:05.096Z,13.03
2023-12-11T03:24:32.170Z,12.79
2023-12-11T03:26:59.374Z,12.46
2023-12-11T03:29:26.418Z,12.17
2023-12-11T03:31:53.570Z,11.92
2023-12-11T03:34:20.681Z,11.74
2023-12-11T03:36:47.721Z,11.59
2023-12-11T03:39:15.325Z,11.45
2023-12-11T03:41:42.377Z,11.39
2023-12-11T03:44:09.522Z,11.21
2023-12-11T03:46:36.674Z,11.13
2023-12-11T03:49:03.605Z,11.08
2023-12-11T03:51:30.889Z,11.14
2023-12-11T03:53:57.912Z,11.03
2023-12-11T03:56:25.062Z,10.89
2023-12-11T03:58:52.215Z,10.82
2023-12-11T04:01:19.089Z,10.89
2023-12-11T04:03:46.279Z,10.71
2023-12-11T04:06:13.688Z,10.61
2023-12-11T04:08:41.225Z,10.51
2023-12-11T04:11:11.653Z,10.43
2023-12-11T04:13:38.693Z,10.40
2023-12-11T04:16:06.600Z,10.30
2023-12-11T04:18:33.816Z,10.23
2023-12-11T04:21:00.956Z,10.22
2023-12-11T04:23:28.208Z,10.23
2023-12-11T04:25:57.789Z,10.24
2023-12-11T04:28:24.657Z,10.22
2023-12-11T04:30:52.036Z,10.17
2023-12-11T04:33:19.229Z,10.19
2023-12-11T04:35:46.820Z,10.21
2023-12-11T04:38:13.972Z,10.22
2023-12-11T04:40:41.272Z,10.22
2023-12-11T04:43:08.346Z,10.22
2023-12-11T04:45:35.514Z,10.22
2023-12-11T04:48:02.708Z,10.20
2023-12-11T04:50:30.032Z,10.17
2023-12-11T04:52:56.965Z,10.15
2023-12-11T04:55:24.430Z,10.12
2023-12-11T04:57:51.686Z,10.09
2023-12-11T05:00:19.260Z,10.00
2023-12-11T05:02:46.261Z,9.98
2023-12-11T05:05:15.299Z,9.99
2023-12-11T05:07:42.830Z,10.02
2023-12-11T05:10:10.354Z,10.04
2023-12-11T05:12:37.591Z,10.42
2023-12-11T05:15:05.400Z,10.40
2023-12-11T05:17:32.812Z,10.03
2023-12-11T05:20:00.065Z,9.98
2023-12-11T05:22:27.509Z,9.98
2023-12-11T05:24:54.797Z,10.01
2023-12-11T05:27:21.985Z,10.02
2023-12-11T05:29:49.012Z,10.01
2023-12-11T05:32:15.998Z,10.02
2023-12-11T05:34:42.995Z,10.04
2023-12-11T05:37:10.115Z,10.04
2023-12-11T05:39:41.198Z,10.07
2023-12-11T05:42:08.687Z,10.10
2023-12-11T05:44:35.602Z,10.14
2023-12-11T05:47:02.863Z,10.18
2023-12-11T05:49:30.117Z,10.22
2023-12-11T05:51:57.271Z,10.24
2023-12-11T05:54:24.296Z,10.24
2023-12-11T05:56:51.391Z,10.28
2023-12-11T05:59:18.615Z,10.30
2023-12-11T06:01:45.612Z,10.30
2023-12-11T06:04:13.007Z,10.28
2023-12-11T06:06:40.200Z,10.28
2023-12-11T06:09:07.327Z,10.28
2023-12-11T06:11:34.344Z,10.27
2023-12-11T06:14:01.511Z,10.29
2023-12-11T06:16:28.541Z,10.32
2023-12-11T06:18:55.783Z,10.33
2023-12-11T06:21:22.943Z,10.32
2023-12-11T06:23:50.206Z,10.32
2023-12-11T06:26:33.735Z,10.35
2023-12-11T06:29:01.487Z,10.38
2023-12-11T06:31:29.059Z,10.41
2023-12-11T06:33:56.727Z,10.43
2023-12-11T06:36:24.164Z,10.46
2023-12-11T06:38:51.231Z,10.47
2023-12-11T06:41:18.771Z,10.48
2023-12-11T06:43:53.090Z,10.49
2023-12-11T06:46:20.730Z,10.50
2023-12-11T06:48:48.226Z,10.48
2023-12-11T06:51:18.542Z,10.46
2023-12-11T06:53:45.505Z,10.38
2023-12-11T06:56:21.493Z,10.37
2023-12-11T06:58:48.607Z,10.38
2023-12-11T07:01:16.595Z,10.36
2023-12-11T07:03:46.058Z,10.35
2023-12-11T07:06:13.292Z,10.31
2023-12-11T07:08:40.584Z,10.23
2023-12-11T07:11:07.702Z,10.15
2023-12-11T07:13:34.834Z,10.13
2023-12-11T07:16:02.023Z,10.08
2023-12-11T07:18:29.412Z,9.99
2023-12-11T07:20:57.193Z,9.96
2023-12-11T07:23:24.196Z,9.94
2023-12-11T07:25:51.121Z,9.91
2023-12-11T07:28:18.308Z,9.91
2023-12-11T07:30:46.303Z,9.88
2023-12-11T07:33:13.434Z,9.81
2023-12-11T07:35:40.516Z,9.78
2023-12-11T07:38:07.475Z,9.80
2023-12-11T07:40:34.629Z,9.83
2023-12-11T07:43:02.046Z,9.88
2023-12-11T07:45:29.327Z,9.91
2023-12-11T07:47:56.471Z,9.93
2023-12-11T07:50:23.525Z,9.91
2023-12-11T07:52:50.582Z,9.92
2023-12-11T07:55:17.674Z,9.97
2023-12-11T07:57:44.737Z,10.01
2023-12-11T08:00:12.743Z,10.07
2023-12-11T08:02:40.147Z,10.32
2023-12-11T08:05:07.605Z,10.29
2023-12-11T08:07:35.112Z,10.16
2023-12-11T08:10:03.169Z,10.11
2023-12-11T08:12:31.725Z,10.04
2023-12-11T08:14:58.715Z,10.03
2023-12-11T08:17:25.947Z,10.08
2023-12-11T08:19:54.313Z,10.18
2023-12-11T08:22:21.508Z,10.27
2023-12-11T08:24:48.792Z,10.36
2023-12-11T08:27:16.925Z,10.38
2023-12-11T08:29:43.869Z,10.45
2023-12-11T08:32:11.207Z,10.52
2023-12-11T08:34:38.503Z,10.55
2023-12-11T08:37:05.793Z,10.60
2023-12-11T08:39:33.066Z,10.65
2023-12-11T08:42:00.255Z,10.64
2023-12-11T08:44:27.373Z,10.60
2023-12-11T08:46:54.319Z,10.62
2023-12-11T08:49:21.494Z,10.67
2023-12-11T08:51:48.713Z,10.72
2023-12-11T08:54:16.148Z,10.79
2023-12-11T08:56:43.417Z,10.82
2023-12-11T08:59:10.459Z,10.82
2023-12-11T09:01:38.705Z,10.80
2023-12-11T09:04:05.843Z,10.78
2023-12-11T09:06:32.934Z,10.76
2023-12-11T09:09:00.299Z,10.78
2023-12-11T09:11:27.760Z,10.80
2023-12-11T09:13:55.012Z,10.81
2023-12-11T09:16:22.303Z,10.81
2023-12-11T09:18:49.485Z,10.84
2023-12-11T09:21:16.859Z,10.89
2023-12-11T09:23:43.907Z,10.96
2023-12-11T09:26:10.958Z,11.03
2023-12-11T09:28:48.268Z,11.11
2023-12-11T09:31:20.810Z,11.18
2023-12-11T09:33:48.396Z,11.22
2023-12-11T09:36:15.847Z,11.23
2023-12-11T09:38:43.690Z,11.25
2023-12-11T09:41:10.557Z,11.58
2023-12-11T09:43:37.693Z,12.00
2023-12-11T09:46:07.184Z,11.98
2023-12-11T09:48:34.528Z,11.48
2023-12-11T09:51:01.696Z,11.41
2023-12-11T09:53:30.987Z,11.46
2023-12-11T09:55:58.550Z,11.46
2023-12-11T09:58:25.808Z,11.50
2023-12-11T10:00:53.768Z,11.52
2023-12-11T10:03:21.257Z,11.56
2023-12-11T10:05:48.590Z,11.61
2023-12-11T10:08:18.611Z,11.66
2023-12-11T10:10:46.053Z,11.71
2023-12-11T10:13:25.383Z,11.76
2023-12-11T10:15:52.867Z,11.82
2023-12-11T10:18:20.077Z,11.86
2023-12-11T10:20:50.862Z,11.89
2023-12-11T10:23:19.556Z,11.93
2023-12-11T10:26:04.802Z,11.98
2023-12-11T10:28:32.668Z,12.04
2023-12-11T10:31:05.419Z,12.07
2023-12-11T10:33:33.157Z,12.09
2023-12-11T10:36:12.810Z,12.11
2023-12-11T10:38:40.213Z,12.14
2023-12-11T10:41:07.548Z,12.13
2023-12-11T10:43:56.706Z,12.21
2023-12-11T10:46:32.013Z,12.26
2023-12-11T10:49:00.297Z,12.26
2023-12-11T10:51:27.811Z,12.31
2023-12-11T10:53:55.270Z,12.33
2023-12-11T10:56:22.889Z,12.34
2023-12-11T10:58:50.066Z,12.33
2023-12-11T11:01:17.078Z,12.34
2023-12-11T11:03:44.369Z,12.36
2023-12-11T11:06:11.623Z,12.29
2023-12-11T11:08:52.505Z,12.36
2023-12-11T11:11:25.215Z,12.38
2023-12-11T11:13:52.400Z,12.40
2023-12-11T11:16:19.497Z,12.41
2023-12-11T11:19:06.085Z,12.44
2023-12-11T11:21:33.435Z,12.51
2023-12-11T11:24:00.858Z,12.53
2023-12-11T11:26:35.717Z,12.54
2023-12-11T11:29:06.435Z,12.57
2023-12-11T11:31:53.172Z,12.59
2023-12-11T11:34:46.068Z,12.60
2023-12-11T11:37:21.914Z,12.59
2023-12-11T11:40:03.382Z,12.56
2023-12-11T11:42:34.880Z,12.65
2023-12-11T11:45:04.280Z,12.75
2023-12-11T11:47:37.868Z,12.75
2023-12-11T11:50:10.445Z,12.76
2023-12-11T11:52:39.660Z,12.79
2023-12-11T11:55:15.061Z,12.83
2023-12-11T11:57:43.683Z,12.85
2023-12-11T12:00:10.936Z,12.86
2023-12-11T12:02:38.087Z,12.83
2023-12-11T12:05:11.336Z,12.79
2023-12-11T12:07:43.442Z,12.74
2023-12-11T12:10:12.535Z,12.68
2023-12-11T12:12:39.439Z,12.64
2023-12-11T12:15:11.040Z,12.40
2023-12-11T12:17:38.873Z,12.48
2023-12-11T12:20:13.771Z,12.42
2023-12-11T12:22:57.894Z,12.27
2023-12-11T12:25:27.013Z,12.06
2023-12-11T12:27:55.286Z,12.01
2023-12-11T12:30:22.409Z,11.90
2023-12-11T12:32:51.006Z,11.80
2023-12-11T12:35:19.041Z,11.71
2023-12-11T12:37:47.193Z,11.62
2023-12-11T12:40:14.552Z,11.54
2023-12-11T12:42:43.756Z,11.44
2023-12-11T12:45:12.926Z,11.35
2023-12-11T12:47:47.957Z,11.27
2023-12-11T12:50:25.411Z,11.16
2023-12-11T12:52:54.394Z,11.06
2023-12-11T12:55:30.337Z,10.98
2023-12-11T12:58:00.471Z,10.91
2023-12-11T13:00:27.678Z,10.84
2023-12-11T13:02:55.487Z,10.78
2023-12-11T13:05:23.950Z,10.73
2023-12-11T13:08:02.683Z,10.69
2023-12-11T13:10:30.204Z,10.64
2023-12-11T13:12:57.535Z,10.60
2023-12-11T13:15:24.598Z,10.56
2023-12-11T13:17:53.109Z,10.49
2023-12-11T13:20:20.828Z,10.40
2023-12-11T13:22:49.783Z,10.37
2023-12-11T13:25:17.167Z,10.41
2023-12-11T13:27:48.113Z,10.42
2023-12-11T13:30:16.778Z,10.39
2023-12-11T13:32:44.339Z,10.36
2023-12-11T13:35:11.887Z,10.34
2023-12-11T13:37:39.227Z,10.34
2023-12-11T13:40:07.450Z,10.34
2023-12-11T13:42:35.200Z,10.34
2023-12-11T13:45:02.612Z,10.35
2023-12-11T13:47:30.405Z,10.35
2023-12-11T13:49:57.915Z,10.35
2023-12-11T13:52:25.213Z,10.36
2023-12-11T13:54:52.697Z,10.34
2023-12-11T13:57:20.717Z,10.26
2023-12-11T13:59:48.794Z,10.19
2023-12-11T14:02:17.233Z,10.00
2023-12-11T14:05:06.442Z,9.82
2023-12-11T14:07:34.045Z,9.74
2023-12-11T14:10:01.813Z,9.70
2023-12-11T14:12:29.226Z,9.67
2023-12-11T14:14:56.258Z,9.65
2023-12-11T14:17:23.690Z,9.65
2023-12-11T14:19:50.993Z,9.65
2023-12-11T14:22:19.018Z,9.65
2023-12-11T14:24:46.758Z,9.67
2023-12-11T14:27:14.331Z,9.69
2023-12-11T14:29:42.125Z,9.71
2023-12-11T14:32:09.141Z,9.73
2023-12-11T14:34:42.876Z,9.75
2023-12-11T14:37:11.425Z,9.79
2023-12-11T14:39:39.849Z,9.82
2023-12-11T14:42:07.217Z,9.85
2023-12-11T14:44:35.363Z,9.86
2023-12-11T14:47:02.893Z,9.82
2023-12-11T14:49:29.994Z,9.76
2023-12-11T14:51:57.849Z,9.70
2023-12-11T14:54:25.507Z,9.66
2023-12-11T14:56:52.308Z,9.62
2023-12-11T14:59:19.285Z,9.59
2023-12-11T15:01:48.184Z,9.55
2023-12-11T15:04:15.425Z,9.50
2023-12-11T15:06:42.626Z,9.45
2023-12-11T15:09:09.764Z,9.40
2023-12-11T15:11:38.515Z,9.34
2023-12-11T15:14:06.341Z,9.31
2023-12-11T15:16:38.040Z,9.28
2023-12-11T15:19:05.556Z,9.26
2023-12-11T15:21:33.214Z,9.26
2023-12-11T15:24:00.447Z,9.27
2023-12-11T15:26:27.518Z,9.29
2023-12-11T15:28:54.707Z,9.32
2023-12-11T15:31:23.120Z,9.34
2023-12-11T15:33:51.562Z,9.38
2023-12-11T15:36:21.845Z,9.40
2023-12-11T15:38:49.072Z,9.39
2023-12-11T15:41:17.279Z,9.36
2023-12-11T15:43:47.944Z,9.33
2023-12-11T15:46:18.169Z,9.32
2023-12-11T15:48:46.751Z,9.32
2023-12-11T15:51:19.730Z,9.31
2023-12-11T15:53:47.305Z,9.32
2023-12-11T15:56:16.368Z,9.33
2023-12-11T15:58:43.945Z,9.34
2023-12-11T16:01:11.696Z,9.37
2023-12-11T16:03:39.199Z,9.36
2023-12-11T16:06:09.531Z,9.38
2023-12-11T16:08:37.047Z,9.51
2023-12-11T16:11:04.402Z,9.58
2023-12-11T16:13:31.860Z,9.63
2023-12-11T16:15:59.623Z,9.66
2023-12-11T16:18:27.165Z,9.70
2023-12-11T16:20:54.133Z,9.71
2023-12-11T16:23:21.078Z,9.72
2023-12-11T16:25:56.052Z,9.73
2023-12-11T16:28:30.026Z,9.71
2023-12-11T16:30:57.319Z,9.64
2023-12-11T16:33:24.683Z,9.58
2023-12-11T16:35:53.652Z,9.53
2023-12-11T16:38:20.766Z,9.47
2023-12-11T16:40:48.536Z,9.42
2023-12-11T16:43:15.503Z,9.39
2023-12-11T16:45:45.539Z,9.39
2023-12-11T16:48:13.151Z,9.43
2023-12-11T16:50:43.630Z,9.48
2023-12-11T16:53:11.079Z,9.53
2023-12-11T16:55:38.143Z,9.55
2023-12-11T16:58:05.867Z,9.53
2023-12-11T17:00:32.997Z,9.56
2023-12-11T17:03:00.049Z,9.58
2023-12-11T17:05:27.461Z,9.61
2023-12-11T17:07:54.647Z,9.62
2023-12-11T17:10:21.885Z,9.63
2023-12-11T17:12:49.057Z,9.64
2023-12-11T17:15:16.611Z,9.65
2023-12-11T17:17:43.882Z,9.67
2023-12-11T17:20:11.820Z,9.67
2023-12-11T17:22:39.175Z,9.69
2023-12-11T17:25:07.379Z,9.70
2023-12-11T17:27:34.761Z,9.72
2023-12-11T17:30:03.923Z,9.73
2023-12-11T17:32:32.858Z,9.74
2023-12-11T17:35:02.489Z,9.77
2023-12-11T17:37:29.920Z,9.83
2023-12-11T17:39:57.277Z,9.85
2023-12-11T17:42:27.606Z,9.86
2023-12-11T17:44:54.801Z,9.85
2023-12-11T17:47:22.032Z,9.83
2023-12-11T17:49:49.260Z,9.84
2023-12-11T17:52:16.735Z,9.84
2023-12-11T17:54:45.538Z,9.84
2023-12-11T17:57:12.486Z,9.83
2023-12-11T17:59:41.783Z,9.85
2023-12-11T18:02:10.462Z,9.87
2023-12-11T18:04:39.210Z,9.82
2023-12-11T18:07:07.325Z,9.88
2023-12-11T18:09:37.177Z,9.89
2023-12-11T18:12:05.430Z,9.90
2023-12-11T18:14:32.756Z,9.92
2023-12-11T18:16:59.696Z,9.93
2023-12-11T18:19:27.142Z,9.92
2023-12-11T18:21:55.332Z,9.87
2023-12-11T18:24:23.940Z,9.87
2023-12-11T18:26:50.959Z,9.88
2023-12-11T18:29:18.583Z,9.87
2023-12-11T18:31:45.874Z,9.89
2023-12-11T18:34:14.128Z,9.89
2023-12-11T18:36:41.914Z,9.87
2023-12-11T18:39:15.810Z,9.86
2023-12-11T18:41:43.066Z,9.87
2023-12-11T18:44:10.855Z,9.87
2023-12-11T18:46:39.214Z,9.86
2023-12-11T18:49:06.348Z,9.88
2023-12-11T18:51:33.627Z,9.88
2023-12-11T18:54:00.996Z,9.89
2023-12-11T18:56:28.448Z,9.88
2023-12-11T18:58:55.404Z,9.87
2023-12-11T19:01:24.122Z,9.87
2023-12-11T19:03:51.484Z,9.88
2023-12-11T19:06:18.967Z,9.89
2023-12-11T19:08:46.998Z,9.90
2023-12-11T19:11:14.593Z,9.97
2023-12-11T19:13:41.668Z,9.94
2023-12-11T19:16:09.263Z,9.87
2023-12-11T19:18:36.781Z,9.95
2023-12-11T19:21:04.937Z,9.97
2023-12-11T19:23:32.194Z,9.97
2023-12-11T19:25:59.350Z,9.98
2023-12-11T19:28:27.284Z,10.00
2023-12-11T19:30:54.758Z,10.01
2023-12-11T19:33:22.536Z,9.96
2023-12-11T19:35:50.607Z,9.94
2023-12-11T19:38:17.663Z,9.94
2023-12-11T19:40:44.914Z,9.93
2023-12-11T19:43:15.670Z,9.93
2023-12-11T19:45:43.199Z,9.97
2023-12-11T19:48:10.311Z,9.99
2023-12-11T19:50:37.617Z,9.99
2023-12-11T19:53:04.745Z,9.99
2023-12-11T19:55:31.881Z,9.98
2023-12-11T19:57:59.718Z,9.98
2023-12-11T20:00:26.903Z,9.97
2023-12-11T20:02:53.852Z,9.91
2023-12-11T20:05:21.340Z,9.91
2023-12-11T20:07:48.753Z,9.92
2023-12-11T20:10:16.385Z,9.91
2023-12-11T20:12:43.632Z,9.92
2023-12-11T20:15:13.963Z,9.94
2023-12-11T20:17:41.178Z,9.94
2023-12-11T20:20:08.530Z,9.94
2023-12-11T20:22:35.960Z,9.94
2023-12-11T20:25:03.165Z,9.93
2023-12-11T20:27:30.557Z,9.90
2023-12-11T20:29:57.721Z,9.88
2023-12-11T20:32:25.965Z,9.86
2023-12-11T20:34:53.777Z,9.84
2023-12-11T20:37:20.850Z,9.97
2023-12-11T20:39:47.810Z,10.09
2023-12-11T20:42:17.959Z,10.10
2023-12-11T20:44:44.928Z,10.12
2023-12-11T20:47:11.994Z,10.13
2023-12-11T20:49:38.960Z,10.12
2023-12-11T20:52:06.634Z,10.12
2023-12-11T20:54:33.704Z,10.10
2023-12-11T20:57:00.685Z,10.07
2023-12-11T20:59:28.113Z,10.05
2023-12-11T21:01:55.211Z,10.01
2023-12-11T21:04:22.447Z,9.98
2023-12-11T21:06:49.645Z,9.97
2023-12-11T21:09:17.937Z,9.89
2023-12-11T21:11:45.393Z,9.83
2023-12-11T21:14:12.346Z,9.92
2023-12-11T21:16:39.352Z,9.93
2023-12-11T21:19:06.599Z,9.93
2023-12-11T21:21:34.219Z,9.94
2023-12-11T21:24:01.488Z,9.96
2023-12-11T21:26:31.750Z,9.98
2023-12-11T21:28:59.937Z,10.00
2023-12-11T21:31:29.470Z,10.02
2023-12-11T21:33:56.826Z,10.04
2023-12-11T21:36:30.172Z,10.04
2023-12-11T21:38:57.970Z,10.06
2023-12-11T21:41:24.903Z,10.06
2023-12-11T21:43:52.499Z,10.06
2023-12-11T21:46:19.670Z,10.07
2023-12-11T21:48:48.436Z,10.08
2023-12-11T21:51:16.331Z,10.08
2023-12-11T21:53:43.654Z,10.08
2023-12-11T21:56:10.765Z,10.08
2023-12-11T21:58:37.913Z,10.12
2023-12-11T22:01:05.343Z,10.16
2023-12-11T22:03:32.672Z,10.17
2023-12-11T22:05:59.891Z,10.16
2023-12-11T22:08:27.443Z,10.16
2023-12-11T22:10:57.369Z,10.16
2023-12-11T22:13:25.045Z,10.17
2023-12-11T22:15:51.968Z,10.18
2023-12-11T22:18:19.157Z,10.19
2023-12-11T22:20:47.490Z,10.19
2023-12-11T22:23:14.549Z,10.19
2023-12-11T22:25:41.882Z,10.20
2023-12-11T22:28:08.848Z,10.21
2023-12-11T22:30:35.988Z,10.23
2023-12-11T22:33:03.048Z,10.23
2023-12-11T22:35:30.078Z,10.23
2023-12-11T22:37:57.354Z,10.22
2023-12-11T22:40:24.404Z,10.22
2023-12-11T22:42:51.516Z,10.22
2023-12-11T22:45:20.412Z,10.20
2023-12-11T22:47:47.490Z,10.21
2023-12-11T22:50:14.917Z,10.21
2023-12-11T22:52:41.859Z,10.23
2023-12-11T22:55:09.524Z,10.24
2023-12-11T22:57:36.463Z,10.26
2023-12-11T23:00:04.342Z,10.28
2023-12-11T23:02:32.088Z,10.30
2023-12-11T23:04:59.118Z,10.31
2023-12-11T23:07:26.278Z,10.32
2023-12-11T23:09:53.377Z,10.33
2023-12-11T23:12:20.288Z,10.34
2023-12-11T23:14:47.435Z,10.36
2023-12-11T23:17:14.240Z,10.37
2023-12-11T23:19:41.169Z,10.37
2023-12-11T23:22:08.398Z,10.37
2023-12-11T23:24:36.229Z,10.33
2023-12-11T23:27:03.693Z,10.32
2023-12-11T23:29:30.687Z,10.33
2023-12-11T23:31:57.530Z,10.34
2023-12-11T23:34:24.738Z,10.34
2023-12-11T23:36:51.803Z,10.35
2023-12-11T23:39:19.842Z,10.36
2023-12-11T23:41:46.721Z,10.35
2023-12-11T23:44:13.635Z,10.34
2023-12-11T23:46:41.079Z,10.33
2023-12-11T23:49:08.227Z,10.33
2023-12-11T23:51:35.793Z,10.33
2023-12-11T23:54:03.149Z,10.33
2023-12-11T23:56:30.209Z,10.34
2023-12-11T23:58:57.344Z,10.34
